createdAt,value
2023-04-23T04:00:30.656Z,988.58
2023-04-23T04:05:30.788Z,988.54
2023-04-23T04:10:30.516Z,988.57
2023-04-23T04:15:37.501Z,988.58
2023-04-23T04:20:30.411Z,988.57
2023-04-23T04:25:30.337Z,988.48
2023-04-23T04:30:30.271Z,988.52
2023-04-23T04:35:30.246Z,988.57
2023-04-23T04:40:30.156Z,988.47
2023-04-23T04:45:30.110Z,988.52
2023-04-23T04:50:30.067Z,988.57
2023-04-23T04:55:30.038Z,988.54
2023-04-23T05:00:29.983Z,988.57
2023-04-23T05:05:29.916Z,988.70
2023-04-23T05:10:29.874Z,988.68
2023-04-23T05:15:29.837Z,988.65
2023-04-23T05:20:29.753Z,988.68
2023-04-23T05:25:29.690Z,988.64
2023-04-23T05:30:29.642Z,988.70
2023-04-23T05:35:29.754Z,988.69
2023-04-23T05:40:29.551Z,988.64
2023-04-23T05:45:29.473Z,988.70
2023-04-23T05:50:29.417Z,988.62
2023-04-23T05:55:29.367Z,988.77
2023-04-23T06:00:29.393Z,988.72
2023-04-23T06:05:29.344Z,988.82
2023-04-23T06:10:29.192Z,988.72
2023-04-23T06:15:29.171Z,988.75
2023-04-23T06:20:29.089Z,988.64
2023-04-23T06:25:29.026Z,988.57
2023-04-23T06:30:28.961Z,988.66
2023-04-23T06:35:28.939Z,988.61
2023-04-23T06:40:28.878Z,988.54
2023-04-23T06:45:28.797Z,988.46
2023-04-23T06:50:28.753Z,988.53
2023-04-23T06:55:28.705Z,988.57
2023-04-23T07:00:28.642Z,988.56
2023-04-23T07:05:28.585Z,988.49
2023-04-23T07:10:28.549Z,988.47
2023-04-23T07:15:28.592Z,988.39
2023-04-23T07:20:28.453Z,988.33
2023-04-23T07:25:28.402Z,988.24
2023-04-23T07:30:28.347Z,988.13
2023-04-23T07:35:28.309Z,988.17
2023-04-23T07:40:28.222Z,988.12
2023-04-23T07:45:28.182Z,988.17
2023-04-23T07:50:28.124Z,988.07
2023-04-23T07:55:28.110Z,988.08
2023-04-23T08:00:28.017Z,988.14
2023-04-23T08:05:28.010Z,988.06
2023-04-23T08:10:27.917Z,987.99
2023-04-23T08:15:27.952Z,987.93
2023-04-23T08:20:27.797Z,987.89
2023-04-23T08:25:27.753Z,987.94
2023-04-23T08:30:27.690Z,988.02
2023-04-23T08:35:27.652Z,987.93
2023-04-23T08:40:27.579Z,987.93
2023-04-23T08:45:27.524Z,987.91
2023-04-23T08:50:27.476Z,987.86
2023-04-23T08:55:27.445Z,987.91
2023-04-23T09:00:27.368Z,987.89
2023-04-23T09:05:27.323Z,987.86
2023-04-23T09:10:27.260Z,987.81
2023-04-23T09:15:27.224Z,987.74
2023-04-23T09:20:27.162Z,987.65
2023-04-23T09:25:27.100Z,987.65
2023-04-23T09:30:27.044Z,987.54
2023-04-23T09:35:27.006Z,987.64
2023-04-23T09:40:26.941Z,987.48
2023-04-23T09:45:26.892Z,987.46
2023-04-23T09:50:26.834Z,987.54
2023-04-23T09:55:26.818Z,987.37
2023-04-23T10:00:26.718Z,987.32
2023-04-23T10:05:31.610Z,987.29
2023-04-23T10:10:27.902Z,987.13
2023-04-23T10:15:26.669Z,987.13
2023-04-23T10:20:33.546Z,987.13
2023-04-23T10:25:26.454Z,987.08
2023-04-23T10:30:26.431Z,987.10
2023-04-23T10:35:26.462Z,987.02
2023-04-23T10:40:26.326Z,987.09
2023-04-23T10:45:26.244Z,986.88
2023-04-23T10:50:26.488Z,986.88
2023-04-23T10:55:26.153Z,986.90
2023-04-23T11:00:26.070Z,986.82
2023-04-23T11:05:26.034Z,986.65
2023-04-23T11:10:25.999Z,986.71
2023-04-23T11:15:25.955Z,986.69
2023-04-23T11:20:26.063Z,986.65
2023-04-23T11:25:25.810Z,986.64
2023-04-23T11:30:25.728Z,986.48
2023-04-23T11:35:25.708Z,986.43
2023-04-23T11:40:25.690Z,986.28
2023-04-23T11:45:25.582Z,986.24
2023-04-23T11:50:25.551Z,986.18
2023-04-23T11:55:25.509Z,986.11
2023-04-23T12:00:25.437Z,986.05
2023-04-23T12:05:25.393Z,986.07
2023-04-23T12:10:25.327Z,985.90
2023-04-23T12:15:25.470Z,985.75
2023-04-23T12:20:25.227Z,985.76
2023-04-23T12:25:25.172Z,985.62
2023-04-23T12:30:25.090Z,985.57
2023-04-23T12:35:25.820Z,985.53
2023-04-23T12:40:25.007Z,985.54
2023-04-23T12:45:24.974Z,985.49
2023-04-23T12:50:24.916Z,985.57
2023-04-23T12:55:24.866Z,985.44
2023-04-23T13:00:24.826Z,985.38
2023-04-23T13:05:24.720Z,985.36
2023-04-23T13:10:24.693Z,985.13
2023-04-23T13:15:26.943Z,985.17
2023-04-23T13:20:24.597Z,985.10
2023-04-23T13:25:24.639Z,984.98
2023-04-23T13:30:24.462Z,984.94
2023-04-23T13:35:24.472Z,984.83
2023-04-23T13:40:24.395Z,984.75
2023-04-23T13:45:24.302Z,984.78
2023-04-23T13:50:24.343Z,984.81
2023-04-23T13:55:24.233Z,984.63
2023-04-23T14:00:24.141Z,984.48
2023-04-23T14:05:24.122Z,984.34
2023-04-23T14:10:24.081Z,984.38
2023-04-23T14:15:24.031Z,984.28
2023-04-23T14:20:23.916Z,984.20
2023-04-23T14:25:23.882Z,984.08
2023-04-23T14:30:23.819Z,983.88
2023-04-23T14:35:35.654Z,983.79
2023-04-23T14:40:24.716Z,983.80
2023-04-23T14:45:23.914Z,983.65
2023-04-23T14:50:23.599Z,983.70
2023-04-23T14:55:23.593Z,983.69
2023-04-23T15:00:23.476Z,983.59
2023-04-23T15:05:23.441Z,983.56
2023-04-23T15:10:23.523Z,983.58
2023-04-23T15:15:30.599Z,983.55
2023-04-23T15:20:24.287Z,983.41
2023-04-23T15:25:23.230Z,983.41
2023-04-23T15:30:23.692Z,983.35
2023-04-23T15:35:23.130Z,983.52
2023-04-23T15:40:23.072Z,983.51
2023-04-23T15:45:23.023Z,983.46
2023-04-23T15:50:22.983Z,983.35
2023-04-23T15:55:22.944Z,983.38
2023-04-23T16:00:22.853Z,983.31
2023-04-23T16:05:22.787Z,983.46
2023-04-23T16:10:22.767Z,983.53
2023-04-23T16:15:22.712Z,983.57
2023-04-23T16:20:29.811Z,983.53
2023-04-23T16:25:22.579Z,983.54
2023-04-23T16:30:22.514Z,983.52
2023-04-23T16:35:22.498Z,983.51
2023-04-23T16:40:22.405Z,983.50
2023-04-23T16:45:22.361Z,983.63
2023-04-23T16:50:22.284Z,983.67
2023-04-23T16:55:22.260Z,983.57
2023-04-23T17:00:22.198Z,983.25
2023-04-23T17:05:22.126Z,983.15
2023-04-23T17:10:22.070Z,982.76
2023-04-23T17:15:22.068Z,982.70
2023-04-23T17:20:21.960Z,982.54
2023-04-23T17:25:21.908Z,982.60
2023-04-23T17:30:21.841Z,982.69
2023-04-23T17:35:21.821Z,982.58
2023-04-23T17:40:21.941Z,982.48
2023-04-23T17:45:21.689Z,982.53
2023-04-23T17:50:21.638Z,982.49
2023-04-23T17:55:21.613Z,982.39
2023-04-23T18:00:21.588Z,982.21
2023-04-23T18:05:21.474Z,982.06
2023-04-23T18:10:21.422Z,982.04
2023-04-23T18:15:21.390Z,982.02
2023-04-23T18:20:22.836Z,981.98
2023-04-23T18:25:21.256Z,982.02
2023-04-23T18:30:21.213Z,981.98
2023-04-23T18:35:21.170Z,981.98
2023-04-23T18:40:21.112Z,982.06
2023-04-23T18:45:21.030Z,982.14
2023-04-23T18:50:20.984Z,982.07
2023-04-23T18:55:20.967Z,982.02
2023-04-23T19:00:20.874Z,981.94
2023-04-23T19:05:20.850Z,981.94
2023-04-23T19:10:20.773Z,981.97
2023-04-23T19:15:20.730Z,981.99
2023-04-23T19:20:20.659Z,982.05
2023-04-23T19:25:20.608Z,981.99
2023-04-23T19:30:20.562Z,982.14
2023-04-23T19:35:20.518Z,982.10
2023-04-23T19:40:20.444Z,982.15
2023-04-23T19:45:20.392Z,982.21
2023-04-23T19:50:20.333Z,982.26
2023-04-23T19:55:20.298Z,982.45
2023-04-23T20:00:20.236Z,982.43
2023-04-23T20:05:20.190Z,982.50
2023-04-23T20:10:20.122Z,982.59
2023-04-23T20:15:20.088Z,982.60
2023-04-23T20:20:20.008Z,982.68
2023-04-23T20:25:20.841Z,982.58
2023-04-23T20:30:19.916Z,982.72
2023-04-23T20:35:19.903Z,982.78
2023-04-23T20:40:19.801Z,982.85
2023-04-23T20:45:19.741Z,982.79
2023-04-23T20:50:19.690Z,982.80
2023-04-23T20:55:19.663Z,982.73
2023-04-23T21:00:19.582Z,982.64
2023-04-23T21:05:19.518Z,982.75
2023-04-23T21:10:19.487Z,982.75
2023-04-23T21:15:19.442Z,982.76
2023-04-23T21:20:19.368Z,982.76
2023-04-23T21:25:19.309Z,982.71
2023-04-23T21:30:19.253Z,982.86
2023-04-23T21:35:19.389Z,982.85
2023-04-23T21:40:19.138Z,982.86
2023-04-23T21:45:19.094Z,982.80
2023-04-23T21:50:19.039Z,982.68
2023-04-23T21:55:19.029Z,982.65
2023-04-23T22:00:18.946Z,982.67
2023-04-23T22:05:18.882Z,982.66
2023-04-23T22:10:18.832Z,982.61
2023-04-23T22:15:18.798Z,982.64
2023-04-23T22:20:18.718Z,982.64
2023-04-23T22:25:18.675Z,982.59
2023-04-23T22:30:18.604Z,982.61
2023-04-23T22:35:18.703Z,982.68
2023-04-23T22:40:18.512Z,982.64
2023-04-23T22:45:18.455Z,982.72
2023-04-23T22:50:18.395Z,982.72
2023-04-23T22:55:18.373Z,982.59
2023-04-23T23:00:18.332Z,982.53
2023-04-23T23:05:18.240Z,982.57
2023-04-23T23:10:18.177Z,982.54
2023-04-23T23:15:18.148Z,982.51
2023-04-23T23:20:18.076Z,982.46
2023-04-23T23:25:18.020Z,982.47
